Time;durP1;ratioP1;P1;durP2;ratioP2;P2;SDS_P1;SDS_P2;PMS_P1;PMS_P2;Temp;Humidity;BMP_temperature;BMP_pressure;BME280_temperature;BME280_humidity;BME280_pressure;Samples;Min_cycle;Max_cycle;Signal;HPM_P1;HPM_P2
2021/06/16 00:00:31;;;;;;;;;3.75;3.50;;;;;;;;3731791;37;18155;-66
2021/06/16 00:02:59;;;;;;;;;5.50;5.00;;;;;;;;3726698;37;18162;-66
2021/06/16 00:05:26;;;;;;;;;2.00;2.00;;;;;;;;3725692;37;20916;-63
2021/06/16 00:07:52;;;;;;;;;2.25;2.25;;;;;;;;3724508;37;20927;-65
2021/06/16 00:10:19;;;;;;;;;3.25;3.25;;;;;;;;3724119;37;20925;-67
2021/06/16 00:12:45;;;;;;;;;2.75;2.75;;;;;;;;3724190;38;20918;-66
2021/06/16 00:15:16;;;;;;;;;5.00;5.00;;;;;;;;3724571;37;20908;-64
2021/06/16 00:17:42;;;;;;;;;4.25;4.25;;;;;;;;3724620;38;20883;-64
2021/06/16 00:20:09;;;;;;;;;2.25;2.25;;;;;;;;3724752;37;20834;-64
2021/06/16 00:22:35;;;;;;;;;6.00;6.00;;;;;;;;3724672;37;20888;-65
2021/06/16 00:25:02;;;;;;;;;4.25;4.25;;;;;;;;3724694;37;20896;-65
2021/06/16 00:27:28;;;;;;;;;5.50;5.00;;;;;;;;3724203;38;18118;-65
2021/06/16 00:29:55;;;;;;;;;4.00;3.25;;;;;;;;3724520;37;20899;-64
2021/06/16 00:32:21;;;;;;;;;2.75;2.75;;;;;;;;3724133;38;20882;-63
2021/06/16 00:34:47;;;;;;;;;2.50;2.50;;;;;;;;3724209;37;20886;-64
2021/06/16 00:37:13;;;;;;;;;5.25;5.25;;;;;;;;3724143;37;18085;-65
2021/06/16 00:39:39;;;;;;;;;4.00;4.00;;;;;;;;3724457;38;20878;-65
2021/06/16 00:42:06;;;;;;;;;3.75;3.75;;;;;;;;3724594;37;18114;-65
2021/06/16 00:44:32;;;;;;;;;4.00;3.00;;;;;;;;3724375;38;18104;-65
2021/06/16 00:46:58;;;;;;;;;5.00;5.00;;;;;;;;3724555;37;20867;-65
2021/06/16 00:49:24;;;;;;;;;5.75;4.00;;;;;;;;3724565;37;18093;-67
2021/06/16 00:51:50;;;;;;;;;2.75;2.75;;;;;;;;3724551;37;18110;-67
2021/06/16 00:54:20;;;;;;;;;4.00;4.00;;;;;;;;3724696;38;18087;-65
2021/06/16 00:56:51;;;;;;;;;4.00;4.00;;;;;;;;3724188;37;18086;-65
2021/06/16 00:59:17;;;;;;;;;2.00;2.00;;;;;;;;3724212;37;20847;-65
2021/06/16 01:01:45;;;;;;;;;3.00;3.00;;;;;;;;3724710;38;20846;-66
2021/06/16 01:04:16;;;;;;;;;3.00;3.00;;;;;;;;3724208;38;18073;-65
2021/06/16 01:06:44;;;;;;;;;4.00;3.50;;;;;;;;3724369;37;20853;-65
2021/06/16 01:09:30;;;;;;;;;2.00;2.00;;;;;;;;3723841;37;20834;-66
2021/06/16 01:12:11;;;;;;;;;2.00;2.00;;;;;;;;3724466;37;20872;-66
2021/06/16 01:14:47;;;;;;;;;4.00;4.00;;;;;;;;3724359;37;20865;-66
2021/06/16 01:17:17;;;;;;;;;3.25;3.00;;;;;;;;3724185;37;20868;-66
2021/06/16 01:20:03;;;;;;;;;2.00;2.00;;;;;;;;3724389;37;20884;-65
2021/06/16 01:22:36;;;;;;;;;1.75;1.75;;;;;;;;3724377;37;20848;-66
2021/06/16 01:25:05;;;;;;;;;1.50;1.50;;;;;;;;3723979;38;20855;-66
2021/06/16 01:27:32;;;;;;;;;2.00;2.00;;;;;;;;3724200;37;20831;-67
2021/06/16 01:29:59;;;;;;;;;2.25;2.25;;;;;;;;3724349;38;20811;-66
2021/06/16 01:32:25;;;;;;;;;1.00;1.00;;;;;;;;3724323;38;20846;-66
2021/06/16 01:34:51;;;;;;;;;0.25;0.25;;;;;;;;3724432;37;20817;-65
2021/06/16 01:37:18;;;;;;;;;1.75;1.75;;;;;;;;3724317;38;20809;-65
2021/06/16 01:39:44;;;;;;;;;2.00;2.00;;;;;;;;3724191;38;20835;-65
2021/06/16 01:42:12;;;;;;;;;1.00;1.00;;;;;;;;3724427;37;20834;-67
2021/06/16 01:44:40;;;;;;;;;1.00;1.00;;;;;;;;3724426;37;20830;-65
2021/06/16 01:47:07;;;;;;;;;1.50;1.50;;;;;;;;3724340;37;20791;-66
2021/06/16 01:49:33;;;;;;;;;1.00;1.00;;;;;;;;3724327;37;20797;-66
2021/06/16 01:52:02;;;;;;;;;1.75;1.75;;;;;;;;3723888;37;20818;-66
2021/06/16 01:54:29;;;;;;;;;1.25;1.25;;;;;;;;3723845;38;20789;-66
2021/06/16 01:56:55;;;;;;;;;2.75;2.00;;;;;;;;3724077;38;20784;-64
2021/06/16 01:59:22;;;;;;;;;2.00;2.00;;;;;;;;3724040;37;20802;-66
2021/06/16 02:01:54;;;;;;;;;3.25;3.25;;;;;;;;3724620;38;17998;-67
2021/06/16 02:04:20;;;;;;;;;2.00;2.00;;;;;;;;3723948;38;20788;-65
2021/06/16 02:06:55;;;;;;;;;1.00;1.00;;;;;;;;3724549;37;20769;-65
2021/06/16 02:09:24;;;;;;;;;1.50;1.50;;;;;;;;3724350;38;20771;-66
2021/06/16 02:11:51;;;;;;;;;2.75;2.75;;;;;;;;3724147;38;20757;-65
2021/06/16 02:14:19;;;;;;;;;1.00;1.00;;;;;;;;3724014;37;20779;-67
2021/06/16 02:17:16;;;;;;;;;2.00;2.00;;;;;;;;3724437;38;20777;-65
2021/06/16 02:19:43;;;;;;;;;3.00;3.00;;;;;;;;3724874;38;20789;-65
2021/06/16 02:22:10;;;;;;;;;1.50;1.50;;;;;;;;3724993;37;20761;-65
2021/06/16 02:24:44;;;;;;;;;4.00;4.00;;;;;;;;3723981;38;20764;-66
2021/06/16 02:27:10;;;;;;;;;3.00;3.00;;;;;;;;3724569;38;20744;-66
2021/06/16 02:29:37;;;;;;;;;3.25;3.25;;;;;;;;3724263;37;20754;-65
2021/06/16 02:32:04;;;;;;;;;2.50;2.50;;;;;;;;3724181;37;20775;-66
2021/06/16 02:34:31;;;;;;;;;2.00;2.00;;;;;;;;3724456;37;20765;-65
2021/06/16 02:37:00;;;;;;;;;1.00;1.00;;;;;;;;3724276;37;20753;-64
2021/06/16 02:39:34;;;;;;;;;3.25;3.00;;;;;;;;3724097;38;20747;-65
2021/06/16 02:42:10;;;;;;;;;3.25;3.25;;;;;;;;3724051;37;20758;-64
2021/06/16 02:44:39;;;;;;;;;2.50;2.50;;;;;;;;3724396;38;20762;-67
2021/06/16 02:47:07;;;;;;;;;1.75;1.75;;;;;;;;3724389;38;20726;-65
2021/06/16 02:49:39;;;;;;;;;3.00;3.00;;;;;;;;3724521;38;20743;-67
2021/06/16 02:52:06;;;;;;;;;5.00;5.00;;;;;;;;3724298;37;20739;-66
2021/06/16 02:54:33;;;;;;;;;3.00;3.00;;;;;;;;3723900;38;20727;-65
2021/06/16 02:57:02;;;;;;;;;1.50;1.50;;;;;;;;3724361;37;20728;-65
2021/06/16 02:59:33;;;;;;;;;3.00;3.00;;;;;;;;3724160;37;20719;-65
2021/06/16 03:01:59;;;;;;;;;4.00;4.00;;;;;;;;3724276;38;20731;-64
2021/06/16 03:04:27;;;;;;;;;4.00;4.00;;;;;;;;3724295;37;20624;-64
2021/06/16 03:06:54;;;;;;;;;4.75;4.75;;;;;;;;3724460;38;20730;-64
2021/06/16 03:09:21;;;;;;;;;3.25;2.00;;;;;;;;3724079;37;20652;-66
2021/06/16 03:11:47;;;;;;;;;3.50;3.50;;;;;;;;3724695;37;20717;-65
2021/06/16 03:14:13;;;;;;;;;3.00;2.75;;;;;;;;3724238;37;20728;-65
2021/06/16 03:16:42;;;;;;;;;7.00;7.00;;;;;;;;3724814;37;20628;-65
2021/06/16 03:19:08;;;;;;;;;3.50;3.00;;;;;;;;3724309;37;20706;-65
2021/06/16 03:21:37;;;;;;;;;8.00;8.00;;;;;;;;3724285;37;20712;-66
2021/06/16 03:24:04;;;;;;;;;2.75;2.00;;;;;;;;3724410;38;20616;-64
2021/06/16 03:26:30;;;;;;;;;5.50;4.00;;;;;;;;3724281;37;20723;-65
2021/06/16 03:28:56;;;;;;;;;3.00;3.00;;;;;;;;3724740;37;20596;-66
2021/06/16 03:31:23;;;;;;;;;5.00;5.00;;;;;;;;3724598;37;20627;-66
2021/06/16 03:33:50;;;;;;;;;5.75;5.75;;;;;;;;3724791;38;20696;-67
2021/06/16 03:36:18;;;;;;;;;3.00;3.00;;;;;;;;3724530;38;20588;-65
2021/06/16 03:38:44;;;;;;;;;5.50;5.50;;;;;;;;3724344;37;20661;-65
2021/06/16 03:41:11;;;;;;;;;3.75;3.75;;;;;;;;3724421;37;20690;-65
2021/06/16 03:43:37;;;;;;;;;4.00;4.00;;;;;;;;3724470;37;20671;-67
2021/06/16 03:46:06;;;;;;;;;5.00;5.00;;;;;;;;3724318;37;20660;-68
2021/06/16 03:48:37;;;;;;;;;4.75;4.75;;;;;;;;3724316;38;20599;-66
2021/06/16 03:51:04;;;;;;;;;4.75;4.75;;;;;;;;3724761;38;20648;-66
2021/06/16 03:53:32;;;;;;;;;3.50;3.50;;;;;;;;3724783;37;20582;-66
2021/06/16 03:56:05;;;;;;;;;5.50;5.50;;;;;;;;3724764;37;20677;-67
2021/06/16 03:58:33;;;;;;;;;7.00;6.25;;;;;;;;3724612;37;20579;-68
2021/06/16 04:00:59;;;;;;;;;6.00;6.00;;;;;;;;3724898;37;20560;-67
2021/06/16 04:03:27;;;;;;;;;6.50;5.75;;;;;;;;3724959;38;20583;-67
2021/06/16 04:05:53;;;;;;;;;3.25;3.00;;;;;;;;3724970;37;20649;-68
2021/06/16 04:08:20;;;;;;;;;4.75;3.75;;;;;;;;3724690;37;20648;-68
2021/06/16 04:10:47;;;;;;;;;5.50;5.50;;;;;;;;3724654;37;20599;-65
2021/06/16 04:13:19;;;;;;;;;6.00;6.00;;;;;;;;3724635;37;20513;-66
2021/06/16 04:15:52;;;;;;;;;5.75;5.75;;;;;;;;3724614;37;20578;-67
2021/06/16 04:18:18;;;;;;;;;4.00;4.00;;;;;;;;3724616;38;20606;-67
2021/06/16 04:20:44;;;;;;;;;7.00;6.00;;;;;;;;3725223;37;20588;-66
2021/06/16 04:23:11;;;;;;;;;2.75;2.75;;;;;;;;3724921;38;17834;-65
2021/06/16 04:25:37;;;;;;;;;4.25;4.25;;;;;;;;3724280;37;20582;-66
2021/06/16 04:28:03;;;;;;;;;3.00;3.00;;;;;;;;3724825;38;20588;-65
2021/06/16 04:30:29;;;;;;;;;3.25;3.00;;;;;;;;3724632;38;17798;-66
2021/06/16 04:32:55;;;;;;;;;5.25;5.00;;;;;;;;3727060;37;20565;-67
2021/06/16 04:35:23;;;;;;;;;7.25;6.50;;;;;;;;3724871;37;17805;-68
2021/06/16 04:37:49;;;;;;;;;4.75;4.00;;;;;;;;3724192;37;17783;-65
2021/06/16 04:40:15;;;;;;;;;4.00;4.00;;;;;;;;3724799;37;20574;-66
2021/06/16 04:42:41;;;;;;;;;6.25;5.00;;;;;;;;3724392;38;20582;-68
2021/06/16 04:45:14;;;;;;;;;4.50;3.75;;;;;;;;3724843;38;20538;-66
2021/06/16 04:47:42;;;;;;;;;5.25;5.25;;;;;;;;3724869;38;20556;-64
2021/06/16 04:50:09;;;;;;;;;5.00;4.50;;;;;;;;3724552;38;20569;-65
2021/06/16 04:52:36;;;;;;;;;6.25;6.00;;;;;;;;3725090;37;20550;-66
2021/06/16 04:55:13;;;;;;;;;7.50;7.00;;;;;;;;3724569;38;20513;-67
2021/06/16 04:57:41;;;;;;;;;4.00;4.00;;;;;;;;3724734;38;20539;-65
2021/06/16 05:00:10;;;;;;;;;5.00;5.00;;;;;;;;3726074;37;20542;-67
2021/06/16 05:02:36;;;;;;;;;5.00;5.00;;;;;;;;3725822;38;20467;-66
2021/06/16 05:05:03;;;;;;;;;2.50;2.50;;;;;;;;3725361;37;20442;-68
2021/06/16 05:07:30;;;;;;;;;3.75;3.75;;;;;;;;3724807;37;20507;-68
2021/06/16 05:09:57;;;;;;;;;3.00;3.00;;;;;;;;3724700;38;20506;-67
2021/06/16 05:12:23;;;;;;;;;4.00;4.00;;;;;;;;3725051;38;20514;-65
2021/06/16 05:14:49;;;;;;;;;3.00;3.00;;;;;;;;3724402;37;20530;-68
2021/06/16 05:17:17;;;;;;;;;3.50;3.50;;;;;;;;3724572;38;17758;-64
2021/06/16 05:19:45;;;;;;;;;3.00;3.00;;;;;;;;3724657;37;20494;-64
2021/06/16 05:22:13;;;;;;;;;3.25;3.25;;;;;;;;3724849;38;20506;-66
2021/06/16 05:24:40;;;;;;;;;3.50;3.50;;;;;;;;3724839;37;20512;-64
2021/06/16 05:27:06;;;;;;;;;2.75;2.75;;;;;;;;3724894;38;20574;-64
2021/06/16 05:29:34;;;;;;;;;3.50;3.50;;;;;;;;3724340;37;20493;-66
2021/06/16 05:32:00;;;;;;;;;4.00;4.00;;;;;;;;3724933;37;20501;-67
2021/06/16 05:34:30;;;;;;;;;3.50;3.50;;;;;;;;3725024;38;20468;-66
2021/06/16 05:36:57;;;;;;;;;4.50;3.25;;;;;;;;3724934;37;20497;-65
2021/06/16 05:39:23;;;;;;;;;8.00;8.00;;;;;;;;3724596;37;20486;-68
2021/06/16 05:41:49;;;;;;;;;6.75;6.75;;;;;;;;3724946;38;20498;-66
2021/06/16 05:44:15;;;;;;;;;5.50;5.00;;;;;;;;3725048;37;17697;-66
2021/06/16 05:46:41;;;;;;;;;1.00;1.00;;;;;;;;3724817;38;20403;-67
2021/06/16 05:49:07;;;;;;;;;4.00;4.00;;;;;;;;3724760;37;17708;-66
2021/06/16 05:51:34;;;;;;;;;5.50;4.75;;;;;;;;3725359;37;17690;-65
2021/06/16 05:54:00;;;;;;;;;8.00;8.00;;;;;;;;3725020;37;20456;-65
2021/06/16 05:56:26;;;;;;;;;7.00;6.75;;;;;;;;3725099;38;20507;-66
2021/06/16 05:58:53;;;;;;;;;4.50;4.00;;;;;;;;3724774;38;17692;-67
2021/06/16 06:01:19;;;;;;;;;5.50;5.50;;;;;;;;3724607;37;20446;-65
2021/06/16 06:03:46;;;;;;;;;7.00;7.00;;;;;;;;3725091;37;20455;-67
2021/06/16 06:06:12;;;;;;;;;3.00;3.00;;;;;;;;3724822;38;17684;-67
2021/06/16 06:08:38;;;;;;;;;10.50;10.25;;;;;;;;3724677;38;20430;-67
2021/06/16 06:11:05;;;;;;;;;4.50;4.50;;;;;;;;3724979;37;17694;-68
2021/06/16 06:13:31;;;;;;;;;7.25;7.00;;;;;;;;3724454;38;17658;-70
2021/06/16 06:15:57;;;;;;;;;9.25;8.25;;;;;;;;3724943;37;20428;-66
2021/06/16 06:18:23;;;;;;;;;3.25;3.25;;;;;;;;3724738;37;20438;-67
2021/06/16 06:20:49;;;;;;;;;8.00;8.00;;;;;;;;3724853;37;17649;-68
2021/06/16 06:23:15;;;;;;;;;5.25;5.25;;;;;;;;3724694;38;20417;-66
2021/06/16 06:25:41;;;;;;;;;6.75;6.00;;;;;;;;3724901;38;17659;-68
2021/06/16 06:28:07;;;;;;;;;4.00;4.00;;;;;;;;3725123;37;17650;-67
2021/06/16 06:30:40;;;;;;;;;6.50;6.50;;;;;;;;3725139;38;17659;-69
2021/06/16 06:33:07;;;;;;;;;10.00;9.50;;;;;;;;3724715;37;20430;-69
2021/06/16 06:35:33;;;;;;;;;4.00;4.00;;;;;;;;3724762;37;20470;-66
2021/06/16 06:37:59;;;;;;;;;5.50;5.50;;;;;;;;3725263;37;20402;-67
2021/06/16 06:40:29;;;;;;;;;8.25;7.50;;;;;;;;3725099;38;17734;-66
2021/06/16 06:42:55;;;;;;;;;5.50;5.50;;;;;;;;3724519;38;21384;-66
2021/06/16 06:45:21;;;;;;;;;6.00;6.00;;;;;;;;3724966;38;20407;-70
2021/06/16 06:47:49;;;;;;;;;3.25;3.25;;;;;;;;3724073;38;17637;-66
2021/06/16 06:50:16;;;;;;;;;13.50;13.50;;;;;;;;3724617;37;21379;-65
2021/06/16 06:52:43;;;;;;;;;12.00;12.00;;;;;;;;3723484;37;20388;-65
2021/06/16 06:55:09;;;;;;;;;12.50;12.50;;;;;;;;3724907;37;21454;-66
2021/06/16 06:57:36;;;;;;;;;14.50;14.50;;;;;;;;3723558;37;21430;-66
2021/06/16 07:00:03;;;;;;;;;14.50;13.25;;;;;;;;3724736;37;21464;-67
2021/06/16 07:02:29;;;;;;;;;12.50;12.50;;;;;;;;3722669;38;21455;-64
2021/06/16 07:04:55;;;;;;;;;13.50;12.75;;;;;;;;3724231;38;21443;-66
2021/06/16 07:07:22;;;;;;;;;14.00;14.00;;;;;;;;3724862;38;18607;-65
2021/06/16 07:09:50;;;;;;;;;13.00;13.00;;;;;;;;3724849;37;18616;-69
2021/06/16 07:12:16;;;;;;;;;13.00;13.00;;;;;;;;3724200;37;21407;-64
2021/06/16 07:14:43;;;;;;;;;11.00;11.00;;;;;;;;3724302;38;21447;-65
2021/06/16 07:17:09;;;;;;;;;13.50;13.50;;;;;;;;3724240;38;21413;-65
2021/06/16 07:19:39;;;;;;;;;13.00;13.00;;;;;;;;3724972;37;21430;-64
2021/06/16 07:22:05;;;;;;;;;15.75;15.50;;;;;;;;3723492;37;21391;-65
2021/06/16 07:24:31;;;;;;;;;15.00;15.00;;;;;;;;3724333;37;18569;-65
2021/06/16 07:27:01;;;;;;;;;16.00;15.75;;;;;;;;3728698;38;21396;-63
2021/06/16 07:29:30;;;;;;;;;15.25;15.25;;;;;;;;3739086;37;18584;-64
2021/06/16 07:32:01;;;;;;;;;13.00;12.50;;;;;;;;3736592;37;21417;-64
2021/06/16 07:34:27;;;;;;;;;14.25;14.25;;;;;;;;3740614;37;21417;-64
2021/06/16 07:36:54;;;;;;;;;15.00;15.00;;;;;;;;3725945;37;21377;-64
2021/06/16 07:39:20;;;;;;;;;14.25;14.25;;;;;;;;3726613;37;21385;-65
2021/06/16 07:41:46;;;;;;;;;14.75;14.75;;;;;;;;3728080;37;21372;-66
2021/06/16 07:44:13;;;;;;;;;15.50;15.25;;;;;;;;3734622;38;21396;-65
2021/06/16 07:46:39;;;;;;;;;10.00;10.00;;;;;;;;3725016;38;21393;-65
2021/06/16 07:49:06;;;;;;;;;17.00;17.00;;;;;;;;3725044;38;21359;-66
2021/06/16 07:51:33;;;;;;;;;12.00;12.00;;;;;;;;3723968;37;21379;-65
2021/06/16 07:54:03;;;;;;;;;15.75;15.00;;;;;;;;3723929;38;21389;-66
2021/06/16 07:56:29;;;;;;;;;12.25;12.25;;;;;;;;3724473;38;21367;-65
2021/06/16 07:59:15;;;;;;;;;13.50;13.00;;;;;;;;3724995;38;21361;-66
2021/06/16 08:01:47;;;;;;;;;10.50;10.50;;;;;;;;3724790;38;18535;-64
2021/06/16 08:04:32;;;;;;;;;14.25;14.00;;;;;;;;3724298;37;21330;-66
2021/06/16 08:07:04;;;;;;;;;14.00;14.00;;;;;;;;3724441;37;21340;-64
2021/06/16 08:09:32;;;;;;;;;9.25;9.25;;;;;;;;3724839;38;21356;-65
2021/06/16 08:11:58;;;;;;;;;14.75;14.75;;;;;;;;3724647;38;21228;-63
2021/06/16 08:14:24;;;;;;;;;17.00;15.75;;;;;;;;3725000;38;18500;-66
2021/06/16 08:16:51;;;;;;;;;16.00;16.00;;;;;;;;3724650;38;21248;-65
2021/06/16 08:19:21;;;;;;;;;14.25;14.25;;;;;;;;3724307;38;21329;-64
2021/06/16 08:21:48;;;;;;;;;11.50;11.50;;;;;;;;3724834;38;21320;-66
2021/06/16 08:24:15;;;;;;;;;14.25;14.25;;;;;;;;3725101;37;21333;-65
2021/06/16 08:26:41;;;;;;;;;14.25;13.75;;;;;;;;3724600;38;21175;-63
2021/06/16 08:29:07;;;;;;;;;14.00;14.00;;;;;;;;3724809;38;21344;-64
2021/06/16 08:31:35;;;;;;;;;15.25;15.25;;;;;;;;3724973;38;21317;-65
2021/06/16 08:34:01;;;;;;;;;14.50;14.50;;;;;;;;3724937;38;21331;-64
2021/06/16 08:36:28;;;;;;;;;12.50;12.50;;;;;;;;3725011;37;18455;-62
2021/06/16 08:38:54;;;;;;;;;8.50;8.00;;;;;;;;3724847;37;18483;-64
2021/06/16 08:41:21;;;;;;;;;12.75;12.75;;;;;;;;3724961;38;21161;-66
2021/06/16 08:43:51;;;;;;;;;13.50;13.50;;;;;;;;3724823;38;21301;-65
2021/06/16 08:46:17;;;;;;;;;14.00;12.50;;;;;;;;3724999;38;21298;-65
2021/06/16 08:48:44;;;;;;;;;12.75;12.75;;;;;;;;3724831;37;21311;-66
2021/06/16 08:51:13;;;;;;;;;12.75;12.75;;;;;;;;3724888;37;21322;-64
2021/06/16 08:53:39;;;;;;;;;14.00;14.00;;;;;;;;3724529;37;21307;-66
2021/06/16 08:56:06;;;;;;;;;14.50;14.50;;;;;;;;3723532;38;21298;-64
2021/06/16 08:58:36;;;;;;;;;12.75;11.75;;;;;;;;3724506;37;21285;-63
2021/06/16 09:01:02;;;;;;;;;16.50;16.00;;;;;;;;3724737;37;21261;-64
2021/06/16 09:03:29;;;;;;;;;13.25;13.25;;;;;;;;3724736;37;21211;-65
2021/06/16 09:06:02;;;;;;;;;12.00;12.00;;;;;;;;3724663;38;21300;-63
2021/06/16 09:08:28;;;;;;;;;12.25;12.25;;;;;;;;3724868;38;21265;-64
2021/06/16 09:10:57;;;;;;;;;12.25;12.25;;;;;;;;3724923;38;21263;-66
2021/06/16 09:13:27;;;;;;;;;12.00;12.00;;;;;;;;3725026;37;21258;-65
2021/06/16 09:15:54;;;;;;;;;8.00;8.00;;;;;;;;3725082;38;21284;-66
2021/06/16 09:18:21;;;;;;;;;12.25;12.25;;;;;;;;3725019;37;21114;-66
2021/06/16 09:20:48;;;;;;;;;11.00;11.00;;;;;;;;3724586;37;21243;-65
2021/06/16 09:23:23;;;;;;;;;11.25;11.25;;;;;;;;3724751;38;21246;-65
2021/06/16 09:26:06;;;;;;;;;12.25;12.25;;;;;;;;3725060;37;21257;-65
2021/06/16 09:28:35;;;;;;;;;11.75;11.75;;;;;;;;3724929;38;21292;-64
2021/06/16 09:31:02;;;;;;;;;13.25;13.25;;;;;;;;3724884;37;21260;-63
2021/06/16 09:33:33;;;;;;;;;11.25;11.25;;;;;;;;3724398;37;21230;-62
2021/06/16 09:36:00;;;;;;;;;11.75;11.75;;;;;;;;3725168;38;21150;-64
2021/06/16 09:38:31;;;;;;;;;13.00;12.50;;;;;;;;3724827;37;21261;-64
2021/06/16 09:40:58;;;;;;;;;12.00;11.75;;;;;;;;3725432;37;21243;-62
2021/06/16 09:43:27;;;;;;;;;14.50;14.50;;;;;;;;3725094;37;21245;-62
2021/06/16 09:45:56;;;;;;;;;13.75;13.50;;;;;;;;3724880;37;21234;-62
2021/06/16 09:48:32;;;;;;;;;16.25;15.00;;;;;;;;3724901;37;21221;-63
2021/06/16 09:51:30;;;;;;;;;11.25;11.25;;;;;;;;3724550;37;21216;-62
2021/06/16 09:54:19;;;;;;;;;11.75;11.75;;;;;;;;3724186;38;21208;-64
2021/06/16 09:56:51;;;;;;;;;8.75;8.75;;;;;;;;3724559;37;21197;-62
2021/06/16 09:59:34;;;;;;;;;15.00;15.00;;;;;;;;3724733;37;21061;-63
2021/06/16 10:02:00;;;;;;;;;14.00;14.00;;;;;;;;3724840;38;21185;-62
2021/06/16 10:04:42;;;;;;;;;12.75;12.75;;;;;;;;3724849;38;21219;-64
2021/06/16 10:07:20;;;;;;;;;12.25;12.25;;;;;;;;3724939;37;18346;-63
2021/06/16 10:09:47;;;;;;;;;13.00;13.00;;;;;;;;3724942;37;21179;-64
2021/06/16 10:12:14;;;;;;;;;10.75;10.75;;;;;;;;3724734;37;21182;-60
2021/06/16 10:14:41;;;;;;;;;10.25;10.00;;;;;;;;3724717;38;21154;-62
2021/06/16 10:17:09;;;;;;;;;12.00;12.00;;;;;;;;3724650;38;20196;-61
2021/06/16 10:19:36;;;;;;;;;12.00;12.00;;;;;;;;3724444;38;21190;-62
2021/06/16 10:22:03;;;;;;;;;12.00;12.00;;;;;;;;3724365;38;21192;-64
2021/06/16 10:24:29;;;;;;;;;12.00;12.00;;;;;;;;3724458;37;21154;-64
2021/06/16 10:26:58;;;;;;;;;13.50;13.00;;;;;;;;3724600;37;21236;-63
2021/06/16 10:29:29;;;;;;;;;13.00;13.00;;;;;;;;3724799;38;21172;-61
2021/06/16 10:32:02;;;;;;;;;14.00;14.00;;;;;;;;3724672;38;21174;-62
2021/06/16 10:34:48;;;;;;;;;13.00;13.00;;;;;;;;3724491;38;21257;-63
2021/06/16 10:37:23;;;;;;;;;12.00;11.50;;;;;;;;3724730;37;21155;-61
2021/06/16 10:40:09;;;;;;;;;13.25;12.75;;;;;;;;3725229;37;21135;-61
2021/06/16 10:42:53;;;;;;;;;12.75;12.75;;;;;;;;3725187;37;21130;-61
2021/06/16 10:45:21;;;;;;;;;11.00;11.00;;;;;;;;3725064;38;21188;-63
2021/06/16 10:48:16;;;;;;;;;12.00;12.00;;;;;;;;3725017;38;21111;-61
2021/06/16 10:51:12;;;;;;;;;10.25;10.25;;;;;;;;3725250;38;21129;-61
2021/06/16 10:53:58;;;;;;;;;7.00;7.00;;;;;;;;3724840;38;21064;-61
2021/06/16 10:56:43;;;;;;;;;10.50;10.50;;;;;;;;3724431;37;21051;-61
2021/06/16 10:59:10;;;;;;;;;9.25;9.25;;;;;;;;3724940;37;21155;-60
2021/06/16 11:02:01;;;;;;;;;188.80;179.20;;;;;;;;3725092;38;21054;-63
2021/06/16 11:04:29;;;;;;;;;22.25;22.25;;;;;;;;3724804;37;18278;-61
2021/06/16 11:06:55;;;;;;;;;11.00;11.00;;;;;;;;3725030;38;20998;-61
2021/06/16 11:09:39;;;;;;;;;12.75;12.00;;;;;;;;3724782;37;21106;-62
2021/06/16 11:12:07;;;;;;;;;13.00;13.00;;;;;;;;3724853;38;18298;-62
2021/06/16 11:14:52;;;;;;;;;13.25;13.25;;;;;;;;3724677;38;21100;-62
2021/06/16 11:17:39;;;;;;;;;13.00;13.00;;;;;;;;3724656;38;21096;-63
2021/06/16 11:20:07;;;;;;;;;14.25;14.00;;;;;;;;3724808;38;21103;-64
2021/06/16 11:22:35;;;;;;;;;12.50;12.50;;;;;;;;3724355;38;21093;-66
2021/06/16 11:25:20;;;;;;;;;12.00;12.00;;;;;;;;3724840;38;21103;-62
2021/06/16 11:27:52;;;;;;;;;11.50;10.50;;;;;;;;3724955;38;21051;-63
2021/06/16 11:30:36;;;;;;;;;12.75;12.75;;;;;;;;3724599;38;21051;-63
2021/06/16 11:33:31;;;;;;;;;9.00;9.00;;;;;;;;3724883;38;21117;-62
2021/06/16 11:35:59;;;;;;;;;12.25;12.25;;;;;;;;3724757;37;21024;-63
2021/06/16 11:38:26;;;;;;;;;10.25;10.25;;;;;;;;3724938;38;21093;-63
2021/06/16 11:40:53;;;;;;;;;8.25;8.25;;;;;;;;3725047;37;21078;-64
2021/06/16 11:43:28;;;;;;;;;74.80;66.00;;;;;;;;3724786;38;21015;-64
2021/06/16 11:45:55;;;;;;;;;88.00;79.25;;;;;;;;3725163;37;18250;-64
2021/06/16 11:48:28;;;;;;;;;9.50;9.50;;;;;;;;3724375;37;21011;-63
2021/06/16 11:50:55;;;;;;;;;9.50;9.50;;;;;;;;3725217;38;21052;-65
2021/06/16 11:53:26;;;;;;;;;10.75;10.75;;;;;;;;3724932;37;21003;-63
2021/06/16 11:55:53;;;;;;;;;12.00;12.00;;;;;;;;3724821;38;21025;-61
2021/06/16 11:58:27;;;;;;;;;12.50;12.50;;;;;;;;3724659;38;21032;-63
2021/06/16 12:01:12;;;;;;;;;12.00;12.00;;;;;;;;3724840;37;21047;-62
2021/06/16 12:03:39;;;;;;;;;12.75;12.25;;;;;;;;3724819;38;21078;-64
2021/06/16 12:06:07;;;;;;;;;6.75;6.75;;;;;;;;3724919;38;21046;-62
2021/06/16 12:08:33;;;;;;;;;7.50;7.00;;;;;;;;3724375;37;20953;-63
2021/06/16 12:11:00;;;;;;;;;4.25;4.00;;;;;;;;3725088;38;20972;-63
2021/06/16 12:13:26;;;;;;;;;4.00;4.00;;;;;;;;3724679;37;20970;-62
2021/06/16 12:15:54;;;;;;;;;5.50;5.50;;;;;;;;3724908;37;20971;-64
2021/06/16 12:18:20;;;;;;;;;5.00;5.00;;;;;;;;3724488;37;20969;-63
2021/06/16 12:20:54;;;;;;;;;8.75;8.50;;;;;;;;3729865;37;20966;-63
2021/06/16 12:23:32;;;;;;;;;5.50;5.50;;;;;;;;3724871;38;20872;-63
2021/06/16 12:26:02;;;;;;;;;5.50;5.00;;;;;;;;3724541;37;20948;-62
2021/06/16 12:28:29;;;;;;;;;8.75;8.00;;;;;;;;3725023;37;21054;-63
2021/06/16 12:30:57;;;;;;;;;6.00;6.00;;;;;;;;3724857;37;20929;-63
2021/06/16 12:33:36;;;;;;;;;7.00;7.00;;;;;;;;3725797;37;20990;-63
2021/06/16 12:36:08;;;;;;;;;5.25;5.25;;;;;;;;3725542;38;20918;-64
2021/06/16 12:38:40;;;;;;;;;5.50;5.50;;;;;;;;3727236;37;20908;-61
2021/06/16 12:41:24;;;;;;;;;18.50;17.75;;;;;;;;3731192;37;20908;-62
2021/06/16 12:43:51;;;;;;;;;10.00;9.50;;;;;;;;3731644;37;20921;-63
2021/06/16 12:46:17;;;;;;;;;9.75;8.00;;;;;;;;3731880;37;20935;-62
2021/06/16 12:48:49;;;;;;;;;6.25;6.25;;;;;;;;3730875;37;20919;-64
2021/06/16 12:51:16;;;;;;;;;8.00;8.00;;;;;;;;3731090;37;20920;-64
2021/06/16 12:53:44;;;;;;;;;8.00;8.00;;;;;;;;3730102;37;20930;-63
2021/06/16 12:56:16;;;;;;;;;9.00;9.00;;;;;;;;3726057;38;20975;-63
2021/06/16 12:58:46;;;;;;;;;9.00;9.00;;;;;;;;3725436;37;20903;-63
2021/06/16 13:01:19;;;;;;;;;8.25;8.25;;;;;;;;3725014;38;20953;-64
2021/06/16 13:03:46;;;;;;;;;8.75;8.75;;;;;;;;3724910;38;20937;-65
2021/06/16 13:06:12;;;;;;;;;9.50;9.50;;;;;;;;3727215;38;20894;-64
2021/06/16 13:08:46;;;;;;;;;7.00;7.00;;;;;;;;3725251;38;20874;-62
2021/06/16 13:11:31;;;;;;;;;5.00;5.00;;;;;;;;3724612;38;20892;-62
2021/06/16 13:14:15;;;;;;;;;9.00;9.00;;;;;;;;3724427;38;20985;-61
2021/06/16 13:16:41;;;;;;;;;11.25;9.00;;;;;;;;3724442;38;20932;-62
2021/06/16 13:19:13;;;;;;;;;7.00;7.00;;;;;;;;3724713;37;20934;-62
2021/06/16 13:21:39;;;;;;;;;7.00;7.00;;;;;;;;3724496;38;20826;-63
2021/06/16 13:24:07;;;;;;;;;9.75;9.25;;;;;;;;3724490;37;20904;-64
2021/06/16 13:26:34;;;;;;;;;7.00;7.00;;;;;;;;3723999;38;21006;-64
2021/06/16 13:29:04;;;;;;;;;8.00;8.00;;;;;;;;3724339;37;20845;-62
2021/06/16 13:31:30;;;;;;;;;7.00;7.00;;;;;;;;3724222;37;20945;-64
2021/06/16 13:34:07;;;;;;;;;8.00;8.00;;;;;;;;3724567;38;20982;-64
2021/06/16 13:36:34;;;;;;;;;7.00;7.00;;;;;;;;3726382;38;20918;-63
2021/06/16 13:39:00;;;;;;;;;7.00;6.25;;;;;;;;3726202;38;20788;-62
2021/06/16 13:41:27;;;;;;;;;7.50;7.00;;;;;;;;3725814;38;20867;-64
2021/06/16 13:43:55;;;;;;;;;8.00;8.00;;;;;;;;3726046;38;20779;-62
2021/06/16 13:46:21;;;;;;;;;7.00;7.00;;;;;;;;3724978;37;20749;-61
2021/06/16 13:48:47;;;;;;;;;6.75;6.75;;;;;;;;3725114;38;20839;-62
2021/06/16 13:51:13;;;;;;;;;9.00;9.00;;;;;;;;3726248;38;20757;-62
2021/06/16 13:53:40;;;;;;;;;6.00;6.00;;;;;;;;3725214;37;18069;-62
2021/06/16 13:56:07;;;;;;;;;9.75;8.50;;;;;;;;3724680;37;20814;-63
2021/06/16 13:58:33;;;;;;;;;6.75;6.75;;;;;;;;3724832;37;20850;-64
2021/06/16 14:00:59;;;;;;;;;7.75;7.75;;;;;;;;3724246;37;20802;-63
2021/06/16 14:03:28;;;;;;;;;7.00;7.00;;;;;;;;3724451;38;20826;-64
2021/06/16 14:06:06;;;;;;;;;7.00;7.00;;;;;;;;3724856;37;20800;-62
2021/06/16 14:08:32;;;;;;;;;7.75;7.75;;;;;;;;3724651;37;20811;-62
2021/06/16 14:11:00;;;;;;;;;8.00;8.00;;;;;;;;3724684;37;20810;-63
2021/06/16 14:13:26;;;;;;;;;7.25;7.25;;;;;;;;3724925;38;18054;-64
2021/06/16 14:15:52;;;;;;;;;8.00;8.00;;;;;;;;3724828;38;20810;-62
2021/06/16 14:18:18;;;;;;;;;9.50;9.50;;;;;;;;3724732;37;20813;-62
2021/06/16 14:20:49;;;;;;;;;8.25;8.25;;;;;;;;3725329;37;18043;-62
2021/06/16 14:23:15;;;;;;;;;9.75;9.75;;;;;;;;3725242;37;20810;-62
2021/06/16 14:25:42;;;;;;;;;10.25;10.25;;;;;;;;3725556;38;20829;-63
2021/06/16 14:28:10;;;;;;;;;8.00;8.00;;;;;;;;3724981;38;20792;-62
2021/06/16 14:30:36;;;;;;;;;8.75;8.75;;;;;;;;3724759;37;18031;-65
2021/06/16 14:33:03;;;;;;;;;6.00;6.00;;;;;;;;3724755;38;20785;-62
2021/06/16 14:35:30;;;;;;;;;8.25;8.25;;;;;;;;3724553;38;20773;-62
2021/06/16 14:37:56;;;;;;;;;9.00;8.75;;;;;;;;3724681;37;20794;-64
2021/06/16 14:40:22;;;;;;;;;8.50;8.50;;;;;;;;3724776;37;20803;-64
2021/06/16 14:42:48;;;;;;;;;9.00;9.00;;;;;;;;3724424;37;20692;-64
2021/06/16 14:45:15;;;;;;;;;7.50;7.50;;;;;;;;3722788;38;20795;-64